Time;durP1;ratioP1;P1;durP2;ratioP2;P2;SDS_P1;SDS_P2;PMS_P1;PMS_P2;Temp;Humidity;BMP_temperature;BMP_pressure;BME280_temperature;BME280_humidity;BME280_pressure;Samples;Min_cycle;Max_cycle;Signal;HPM_P1;HPM_P2
2021/03/15 00:02:12;;;;;;;4.18;1.19;;;;;;;1.79;87.91;99207.41;2028202;77;20326;-69
2021/03/15 00:05:16;;;;;;;3.76;0.99;;;;;;;1.80;88.01;99198.94;2029996;79;20386;-69
2021/03/15 00:08:18;;;;;;;5.91;1.16;;;;;;;1.84;88.14;99197.31;2030637;79;21503;-69
2021/03/15 00:11:20;;;;;;;5.35;1.17;;;;;;;1.87;88.33;99197.41;2030590;79;20302;-69
2021/03/15 00:14:22;;;;;;;4.70;1.08;;;;;;;1.89;88.38;99188.94;2029969;79;20359;-69
2021/03/15 00:17:28;;;;;;;5.51;1.14;;;;;;;1.91;88.49;99184.72;2024720;77;22013;-69
2021/03/15 00:20:30;;;;;;;3.58;1.30;;;;;;;1.97;88.50;99176.31;2025604;79;20802;-69
2021/03/15 00:23:32;;;;;;;3.74;1.24;;;;;;;2.02;88.58;99177.31;2024897;79;21243;-69
2021/03/15 00:26:34;;;;;;;4.40;0.93;;;;;;;2.08;88.82;99167.22;2024712;79;20343;-69
2021/03/15 00:29:35;;;;;;;4.86;1.08;;;;;;;2.11;88.89;99173.28;2024324;79;20351;-70
2021/03/15 00:35:51;;;;;;;6.59;1.20;;;;;;;2.15;88.94;99175.91;2018941;80;20568;-74
2021/03/15 00:38:52;;;;;;;5.63;1.21;;;;;;;2.19;88.99;99153.00;2019770;80;20365;-75
2021/03/15 00:41:54;;;;;;;5.11;1.20;;;;;;;2.23;89.13;99166.75;2019983;80;20351;-75
2021/03/15 00:44:56;;;;;;;5.39;1.48;;;;;;;2.31;89.37;99165.22;2023973;79;20330;-75
2021/03/15 00:47:58;;;;;;;5.63;1.09;;;;;;;2.35;89.36;99167.94;2023544;77;20374;-75
2021/03/15 00:50:59;;;;;;;9.90;1.45;;;;;;;2.39;89.32;99161.19;2024801;79;21296;-75
2021/03/15 00:54:01;;;;;;;2.63;1.08;;;;;;;2.43;89.39;99160.41;2024326;79;20307;-75
2021/03/15 00:57:03;;;;;;;4.07;1.33;;;;;;;2.46;89.32;99157.06;2024929;79;20329;-75
2021/03/15 01:00:06;;;;;;;8.76;1.31;;;;;;;2.48;89.47;99148.56;2024108;79;20325;-75
2021/03/15 01:03:08;;;;;;;4.26;1.11;;;;;;;2.55;89.72;99144.47;2024864;78;23217;-74
2021/03/15 01:06:12;;;;;;;5.96;1.05;;;;;;;2.59;89.70;99143.72;2025457;79;20695;-74
2021/03/15 01:09:14;;;;;;;5.70;1.10;;;;;;;2.63;89.57;99136.13;2025279;79;20311;-74
2021/03/15 01:12:16;;;;;;;7.36;2.01;;;;;;;2.65;89.50;99125.91;2024994;79;20306;-74
2021/03/15 01:15:19;;;;;;;6.28;1.00;;;;;;;2.66;89.52;99117.38;2023505;77;21172;-74
2021/03/15 01:18:21;;;;;;;4.85;1.21;;;;;;;2.69;89.53;99109.75;2024340;79;20395;-74
2021/03/15 01:21:23;;;;;;;6.21;1.01;;;;;;;2.73;89.56;99102.19;2024824;79;20883;-74
2021/03/15 01:24:28;;;;;;;3.14;0.88;;;;;;;2.78;89.75;99107.41;2025754;79;20327;-75
2021/03/15 01:27:30;;;;;;;3.80;0.80;;;;;;;2.81;89.81;99094.66;2025209;79;20368;-75
2021/03/15 01:30:33;;;;;;;5.28;1.01;;;;;;;2.86;89.84;99095.59;2021294;76;20336;-74
2021/03/15 01:33:34;;;;;;;4.45;1.06;;;;;;;2.90;89.66;99088.88;2024403;79;20348;-74
2021/03/15 01:36:36;;;;;;;4.11;1.04;;;;;;;2.91;89.58;99091.47;2024472;79;20346;-74
2021/03/15 01:39:38;;;;;;;7.45;1.00;;;;;;;2.95;89.56;99079.56;2024733;79;20459;-75
2021/03/15 01:42:41;;;;;;;3.86;1.26;;;;;;;2.97;89.43;99073.63;2025326;79;20307;-75
2021/03/15 01:45:42;;;;;;;5.05;1.39;;;;;;;3.00;89.36;99055.75;2023477;77;21336;-74
2021/03/15 01:48:44;;;;;;;4.11;0.90;;;;;;;3.02;89.30;99054.06;2025165;79;20303;-74
2021/03/15 01:51:47;;;;;;;8.14;1.69;;;;;;;3.04;89.31;99048.97;2024533;79;20319;-75
2021/03/15 01:54:49;;;;;;;4.61;1.05;;;;;;;3.07;89.37;99046.50;2024245;79;20880;-74
2021/03/15 01:57:52;;;;;;;6.65;1.58;;;;;;;3.11;89.45;99038.00;2024349;79;20367;-75
2021/03/15 02:00:53;;;;;;;5.84;1.05;;;;;;;3.15;89.39;99041.50;2023915;77;21223;-74
2021/03/15 02:03:55;;;;;;;7.13;0.89;;;;;;;3.18;89.37;99028.72;2023955;79;21279;-75
2021/03/15 02:06:57;;;;;;;6.16;1.11;;;;;;;3.21;89.37;99024.50;2025326;79;20879;-74
2021/03/15 02:09:58;;;;;;;6.59;1.54;;;;;;;3.27;89.38;99018.66;2024920;79;20351;-74
2021/03/15 02:13:13;;;;;;;3.92;0.90;;;;;;;3.31;89.30;99010.16;2024463;79;20818;-74
2021/03/15 02:16:51;;;;;;;4.82;0.95;;;;;;;3.34;89.06;99007.66;2023600;77;21579;-74
2021/03/15 02:20:47;;;;;;;5.59;1.21;;;;;;;3.36;89.04;98995.72;2024681;80;20704;-74
2021/03/15 02:24:01;;;;;;;7.93;1.23;;;;;;;3.39;89.12;98992.31;2014830;80;20364;-74
2021/03/15 02:27:24;;;;;;;4.26;1.21;;;;;;;3.41;89.29;98978.72;2024358;79;20324;-75
2021/03/15 02:30:51;;;;;;;6.06;1.41;;;;;;;3.46;89.31;98979.66;2023673;77;21425;-74
2021/03/15 02:34:14;;;;;;;6.07;1.00;;;;;;;3.49;89.32;98971.13;2024308;79;20340;-74
2021/03/15 02:37:19;;;;;;;5.66;0.98;;;;;;;3.52;89.53;98971.19;2024564;79;20348;-75
2021/03/15 02:40:29;;;;;;;4.72;0.94;;;;;;;3.55;89.42;98954.13;2024804;80;20523;-75
2021/03/15 02:43:41;;;;;;;4.06;1.00;;;;;;;3.58;89.50;98945.59;2024982;79;20727;-75
2021/03/15 02:46:46;;;;;;;5.38;0.88;;;;;;;3.63;89.46;98951.69;2023601;78;21328;-76
2021/03/15 02:49:50;;;;;;;3.83;1.00;;;;;;;3.64;89.32;98943.16;2024842;80;20378;-75
2021/03/15 02:52:53;;;;;;;3.65;1.34;;;;;;;3.64;89.22;98935.44;2024853;80;20350;-76
2021/03/15 02:56:10;;;;;;;5.00;1.19;;;;;;;3.64;89.19;98936.31;2024227;79;20386;-76
2021/03/15 02:59:14;;;;;;;5.07;0.93;;;;;;;3.64;89.25;98926.03;2024715;79;20307;-75
2021/03/15 03:02:18;;;;;;;3.94;1.15;;;;;;;3.66;89.27;98925.22;2024223;77;48080;-76
2021/03/15 03:05:21;;;;;;;6.86;1.30;;;;;;;3.67;89.25;98916.66;2025934;80;20803;-75
2021/03/15 03:08:32;;;;;;;2.38;0.93;;;;;;;3.67;89.32;98912.38;2025717;80;20317;-74
2021/03/15 03:11:35;;;;;;;3.63;1.50;;;;;;;3.69;89.30;98899.56;2025294;80;20808;-75
2021/03/15 03:14:40;;;;;;;4.50;1.04;;;;;;;3.70;89.36;98898.72;2025766;79;20395;-75
2021/03/15 03:17:43;;;;;;;3.51;1.00;;;;;;;3.70;89.46;98889.31;2024909;77;20636;-75
2021/03/15 03:20:50;;;;;;;3.05;1.02;;;;;;;3.71;89.53;98887.63;2025830;79;20311;-75
2021/03/15 03:23:54;;;;;;;3.96;1.13;;;;;;;3.72;89.54;98881.63;2025866;79;20340;-75
2021/03/15 03:26:56;;;;;;;6.01;1.26;;;;;;;3.73;89.53;98858.56;2025563;79;20820;-75
2021/03/15 03:30:00;;;;;;;4.56;1.38;;;;;;;3.75;89.47;98866.28;2026886;79;20315;-74
2021/03/15 03:33:06;;;;;;;3.61;1.17;;;;;;;3.76;89.40;98873.13;2021324;77;22541;-74
2021/03/15 03:36:08;;;;;;;2.70;1.00;;;;;;;3.77;89.37;98874.84;2026064;79;20318;-74
2021/03/15 03:39:13;;;;;;;3.44;1.09;;;;;;;3.78;89.43;98879.19;2026511;79;20546;-74
2021/03/15 03:42:16;;;;;;;2.92;0.90;;;;;;;3.79;89.41;98880.91;2026696;79;20407;-74
2021/03/15 03:45:18;;;;;;;3.19;1.00;;;;;;;3.79;89.32;98871.50;2025187;77;21114;-75
2021/03/15 03:48:20;;;;;;;1.58;0.70;;;;;;;3.80;89.26;98862.09;2027233;79;20844;-76
2021/03/15 03:51:31;;;;;;;2.17;1.14;;;;;;;3.79;89.32;98862.94;2027044;79;20319;-75
2021/03/15 03:54:52;;;;;;;3.33;0.79;;;;;;;3.79;89.25;98868.94;2026181;79;20335;-75
2021/03/15 03:57:56;;;;;;;1.35;0.90;;;;;;;3.77;89.21;98862.91;2026606;79;20307;-74
2021/03/15 04:01:00;;;;;;;1.79;0.70;;;;;;;3.76;89.13;98868.88;2027248;78;21052;-74
2021/03/15 04:04:05;;;;;;;1.71;0.70;;;;;;;3.78;89.17;98876.63;2030781;79;20389;-74
2021/03/15 04:07:08;;;;;;;2.95;0.70;;;;;;;3.78;88.99;98868.91;2030747;79;20767;-74
2021/03/15 04:10:12;;;;;;;0.65;0.60;;;;;;;3.78;88.83;98868.91;2030041;79;21079;-74
2021/03/15 04:13:19;;;;;;;2.13;0.76;;;;;;;3.78;88.75;98867.22;2030316;79;20682;-74
2021/03/15 04:16:29;;;;;;;0.98;0.50;;;;;;;3.78;88.82;98858.66;2028870;77;22079;-74
2021/03/15 04:19:36;;;;;;;0.90;0.59;;;;;;;3.77;88.73;98867.16;2031086;79;20302;-74
2021/03/15 04:22:45;;;;;;;1.10;0.50;;;;;;;3.78;88.66;98856.94;2029808;79;20317;-74
2021/03/15 04:25:50;;;;;;;1.11;0.50;;;;;;;3.79;88.47;98852.66;2030711;79;20782;-74
2021/03/15 04:28:56;;;;;;;1.66;0.50;;;;;;;3.80;88.42;98847.56;2030476;79;20537;-74
2021/03/15 04:31:58;;;;;;;2.35;0.60;;;;;;;3.80;88.34;98841.56;2029453;76;20742;-74
2021/03/15 04:35:01;;;;;;;0.64;0.50;;;;;;;3.79;88.31;98842.41;2026235;79;20322;-74
2021/03/15 04:38:05;;;;;;;1.77;0.50;;;;;;;3.78;88.35;98835.53;2024065;79;21142;-74
2021/03/15 04:41:08;;;;;;;1.04;0.49;;;;;;;3.75;88.42;98823.50;2025991;79;20520;-74
2021/03/15 04:44:11;;;;;;;1.30;0.50;;;;;;;3.74;88.52;98823.47;2024836;79;20331;-74
2021/03/15 04:47:14;;;;;;;2.21;0.50;;;;;;;3.72;88.67;98815.75;2024271;77;20719;-74
2021/03/15 04:50:17;;;;;;;0.40;0.40;;;;;;;3.71;88.69;98806.31;2024976;79;20347;-74
2021/03/15 04:53:19;;;;;;;0.94;0.63;;;;;;;3.73;88.89;98811.47;2024510;79;20411;-74
2021/03/15 04:56:22;;;;;;;1.86;0.54;;;;;;;3.75;89.00;98820.94;2025357;79;21042;-74
2021/03/15 04:59:24;;;;;;;0.66;0.40;;;;;;;3.76;89.10;98808.94;2025174;79;20333;-74
2021/03/15 05:02:27;;;;;;;1.75;0.50;;;;;;;3.78;89.19;98815.00;2023241;77;20855;-71
2021/03/15 05:05:32;;;;;;;1.91;0.50;;;;;;;3.80;89.25;98809.03;2024283;79;20383;-71
2021/03/15 05:08:43;;;;;;;0.50;0.38;;;;;;;3.84;89.31;98804.78;2024693;79;20351;-71
2021/03/15 05:11:46;;;;;;;0.69;0.44;;;;;;;3.88;89.34;98807.41;2024591;79;20429;-71
2021/03/15 05:14:49;;;;;;;0.46;0.41;;;;;;;3.90;89.33;98802.28;2024504;79;20319;-71
2021/03/15 05:17:51;;;;;;;1.15;0.57;;;;;;;3.93;89.35;98798.06;2023087;77;21822;-71
2021/03/15 05:20:53;;;;;;;1.00;0.49;;;;;;;3.96;89.34;98797.25;2024010;79;21289;-71
2021/03/15 05:23:57;;;;;;;1.66;0.50;;;;;;;4.01;89.32;98792.16;2119027;69;20387;-72
2021/03/15 05:26:59;;;;;;;0.98;0.40;;;;;;;4.03;89.33;98796.47;2030366;79;21131;-72
2021/03/15 05:30:05;;;;;;;0.90;0.50;;;;;;;4.04;89.32;98793.06;2028979;79;20417;-72
2021/03/15 05:33:12;;;;;;;2.20;0.50;;;;;;;4.06;89.46;98790.50;2023654;77;20335;-72
2021/03/15 05:36:15;;;;;;;1.06;0.55;;;;;;;4.09;89.48;98785.41;2018947;80;20691;-72
2021/03/15 05:39:17;;;;;;;0.56;0.30;;;;;;;4.11;89.58;98792.28;2019240;80;20340;-72
2021/03/15 05:42:22;;;;;;;0.79;0.43;;;;;;;4.14;nan;98787.19;2019361;80;20364;-72
2021/03/15 05:45:51;;;;;;;0.74;0.40;;;;;;;4.15;89.69;98786.34;2018966;76;20577;-72
2021/03/15 05:49:12;;;;;;;;;;;;;;;4.19;89.67;98785.53;2025070;79;20335;-72
2021/03/15 05:52:33;;;;;;;0.88;0.40;;;;;;;4.21;89.60;98793.25;2024742;79;20555;-72
2021/03/15 05:55:51;;;;;;;0.31;0.30;;;;;;;4.23;89.69;98792.41;2024733;79;20322;-73
2021/03/15 05:59:01;;;;;;;0.68;0.30;;;;;;;4.24;89.76;98789.00;2024303;79;20354;-73
2021/03/15 06:02:25;;;;;;;0.64;0.30;;;;;;;4.27;89.83;98789.88;2023651;76;20897;-74
2021/03/15 06:05:29;;;;;;;1.08;0.43;;;;;;;4.28;90.08;98784.75;2023961;79;20362;-74
2021/03/15 06:08:38;;;;;;;0.30;0.30;;;;;;;4.32;90.14;98788.25;2024666;80;20436;-75
2021/03/15 06:11:46;;;;;;;0.35;0.35;;;;;;;4.33;90.16;98792.53;2024449;79;20339;-75
2021/03/15 06:14:47;;;;;;;0.89;0.30;;;;;;;4.34;90.28;98792.53;2023895;79;20311;-73
2021/03/15 06:17:49;;;;;;;0.40;0.30;;;;;;;4.38;90.32;98781.44;2023048;77;21131;-73
2021/03/15 06:20:52;;;;;;;0.30;0.30;;;;;;;4.44;90.22;98794.34;2025246;80;20358;-72
2021/03/15 06:23:58;;;;;;;0.77;0.57;;;;;;;4.47;90.13;98780.66;2020948;79;20358;-72
2021/03/15 06:27:00;;;;;;;0.65;0.35;;;;;;;4.51;90.14;98778.16;2021922;80;21023;-72
2021/03/15 06:30:03;;;;;;;2.80;0.91;;;;;;;4.53;90.17;98780.75;2020665;80;21167;-72
2021/03/15 06:33:05;;;;;;;0.30;0.30;;;;;;;4.57;90.20;98779.91;2022905;77;21517;-72
2021/03/15 06:36:07;;;;;;;0.30;0.30;;;;;;;4.61;90.18;98775.66;2024132;80;20348;-72
2021/03/15 06:39:13;;;;;;;1.56;0.35;;;;;;;4.64;90.16;98775.69;2023925;80;20387;-72
2021/03/15 06:42:16;;;;;;;0.79;0.47;;;;;;;4.68;90.20;98785.19;2024507;80;20337;-73
2021/03/15 06:45:19;;;;;;;0.40;0.40;;;;;;;4.74;90.17;98782.66;2023249;79;37647;-72
2021/03/15 06:48:22;;;;;;;0.40;0.40;;;;;;;4.80;90.10;98774.97;2024377;80;20818;-72
2021/03/15 06:51:24;;;;;;;2.58;0.40;;;;;;;4.89;90.08;98789.63;2024415;79;20328;-72
2021/03/15 06:54:25;;;;;;;1.05;0.50;;;;;;;5.01;90.11;98793.16;2024914;79;20360;-74
2021/03/15 06:57:28;;;;;;;1.01;0.40;;;;;;;5.12;90.15;98799.25;2024868;80;20331;-72
2021/03/15 07:00:31;;;;;;;0.56;0.40;;;;;;;5.19;90.01;98796.72;2023896;77;24850;-72
2021/03/15 07:03:32;;;;;;;0.30;0.30;;;;;;;5.22;89.81;98807.06;2026139;79;20432;-73
2021/03/15 07:06:36;;;;;;;0.63;0.40;;;;;;;5.23;89.66;98809.66;2026359;79;20715;-77
2021/03/15 07:09:38;;;;;;;0.70;0.40;;;;;;;5.25;89.58;98809.66;2026316;79;20797;-73
2021/03/15 07:12:40;;;;;;;0.49;0.40;;;;;;;5.26;89.51;98812.25;2025993;79;21134;-76
2021/03/15 07:15:47;;;;;;;1.05;0.50;;;;;;;5.32;89.53;98820.00;2024860;77;22573;-73
2021/03/15 07:18:48;;;;;;;0.55;0.40;;;;;;;5.43;89.59;98820.09;2026400;79;20323;-73
2021/03/15 07:21:51;;;;;;;0.43;0.40;;;;;;;5.51;89.33;98820.97;2025401;79;20395;-72
2021/03/15 07:25:13;;;;;;;0.56;0.44;;;;;;;5.57;89.30;98820.19;2025668;79;20323;-72
2021/03/15 07:28:14;;;;;;;0.40;0.40;;;;;;;5.60;89.08;98826.19;2025773;79;20335;-72
2021/03/15 07:31:19;;;;;;;1.06;0.40;;;;;;;5.61;88.93;98833.06;2024442;77;20663;-73
2021/03/15 07:34:21;;;;;;;1.34;0.41;;;;;;;5.67;89.03;98824.50;2026384;79;20334;-75
2021/03/15 07:37:23;;;;;;;1.33;0.49;;;;;;;5.81;89.23;98835.75;2026838;79;20937;-74
2021/03/15 07:40:33;;;;;;;0.40;0.40;;;;;;;5.90;89.09;98840.97;2025688;79;20343;-74
2021/03/15 07:43:35;;;;;;;1.01;0.45;;;;;;;5.94;88.85;98837.59;2025533;79;20345;-74
2021/03/15 07:46:39;;;;;;;0.46;0.46;;;;;;;6.01;88.66;98844.50;2024747;77;20315;-78
2021/03/15 07:49:43;;;;;;;1.70;0.54;;;;;;;6.05;88.59;98840.22;2025332;79;20425;-74
2021/03/15 07:52:45;;;;;;;1.27;0.63;;;;;;;6.13;88.81;98842.84;2025667;79;20336;-75
2021/03/15 07:55:47;;;;;;;0.52;0.50;;;;;;;6.21;88.74;98842.00;2025674;79;20330;-77
2021/03/15 07:58:49;;;;;;;1.58;0.90;;;;;;;6.30;88.37;98859.25;2025697;79;20874;-75
2021/03/15 08:01:51;;;;;;;1.50;0.90;;;;;;;6.39;88.30;98863.56;2024585;77;21726;-74
2021/03/15 08:04:55;;;;;;;0.93;0.90;;;;;;;6.48;88.11;98861.88;2024900;79;20331;-73
2021/03/15 08:08:01;;;;;;;1.31;1.01;;;;;;;6.56;87.81;98873.06;2025482;79;20479;-74
2021/03/15 08:11:04;;;;;;;2.65;0.70;;;;;;;6.66;87.21;98868.81;2025530;79;20336;-74
2021/03/15 08:14:06;;;;;;;0.68;0.61;;;;;;;6.75;86.77;98883.44;2025302;79;20331;-74
2021/03/15 08:17:12;;;;;;;1.56;0.90;;;;;;;6.82;86.50;98891.22;2024917;77;20771;-73
2021/03/15 08:20:15;;;;;;;1.54;0.75;;;;;;;6.88;86.14;98888.66;2025202;79;20438;-73
2021/03/15 08:23:18;;;;;;;1.52;0.60;;;;;;;6.96;85.73;98892.09;2025404;79;20358;-74
2021/03/15 08:26:21;;;;;;;1.80;0.63;;;;;;;7.03;85.44;98886.97;2025881;79;20368;-73
2021/03/15 08:29:23;;;;;;;0.76;0.76;;;;;;;7.02;84.95;98900.72;2025669;79;20339;-74
2021/03/15 08:32:28;;;;;;;1.26;0.63;;;;;;;7.07;84.73;98904.16;2024991;77;23388;-77
2021/03/15 08:35:31;;;;;;;0.73;0.70;;;;;;;7.11;84.63;98911.03;2026751;79;20456;-74
2021/03/15 08:38:34;;;;;;;0.95;0.65;;;;;;;7.12;84.29;98915.34;2024989;79;20340;-72
2021/03/15 08:41:36;;;;;;;2.08;0.95;;;;;;;7.06;83.80;98916.22;2025188;79;20922;-73
2021/03/15 08:44:42;;;;;;;1.46;0.80;;;;;;;6.99;83.42;98924.78;2024997;79;20401;-69
2021/03/15 08:47:50;;;;;;;1.41;0.70;;;;;;;6.93;83.25;98930.81;2024759;77;24716;-70
2021/03/15 08:50:57;;;;;;;0.73;0.73;;;;;;;6.90;82.70;98935.97;2028699;79;20354;-70
2021/03/15 08:54:07;;;;;;;1.04;0.80;;;;;;;6.83;82.34;98946.28;2025072;79;20322;-70
2021/03/15 08:57:30;;;;;;;0.75;0.70;;;;;;;6.79;82.58;98940.22;2025518;79;20348;-71
2021/03/15 09:00:34;;;;;;;0.89;0.70;;;;;;;6.82;82.80;98948.00;2024322;77;20882;-69
2021/03/15 09:03:46;;;;;;;1.85;0.93;;;;;;;6.89;82.76;98943.69;2024739;79;20392;-69
2021/03/15 09:06:48;;;;;;;1.86;0.75;;;;;;;6.95;82.15;98954.88;2024582;79;20324;-70
2021/03/15 09:09:49;;;;;;;1.59;1.00;;;;;;;6.99;81.01;98958.34;2023293;79;20408;-70
2021/03/15 09:13:26;;;;;;;1.83;0.82;;;;;;;7.00;79.41;98957.47;2022649;79;20311;-70
2021/03/15 09:16:29;;;;;;;1.50;0.70;;;;;;;7.00;78.79;98966.94;2017411;77;22086;-70
2021/03/15 09:19:38;;;;;;;1.17;0.95;;;;;;;6.99;76.94;98978.97;2023337;79;20330;-71
2021/03/15 09:22:40;;;;;;;2.49;0.70;;;;;;;7.01;77.08;98977.28;2023793;79;20303;-71
2021/03/15 09:25:41;;;;;;;0.95;0.70;;;;;;;7.00;77.82;98985.00;2023342;79;20379;-71
2021/03/15 09:28:45;;;;;;;0.60;0.60;;;;;;;7.06;78.36;98993.66;2023016;79;21412;-71
2021/03/15 09:32:00;;;;;;;0.73;0.73;;;;;;;7.06;78.97;98997.94;2022538;77;20423;-70
2021/03/15 09:35:15;;;;;;;1.05;0.60;;;;;;;7.44;77.35;99000.63;2023107;79;20384;-71
2021/03/15 09:38:16;;;;;;;0.70;0.70;;;;;;;8.19;77.79;99001.50;2023399;79;20739;-71
2021/03/15 09:41:22;;;;;;;0.41;0.40;;;;;;;8.85;77.20;99002.25;2023253;79;20358;-71
2021/03/15 09:44:32;;;;;;;0.60;0.40;;;;;;;9.09;72.53;99004.72;2023602;79;20326;-71
2021/03/15 09:47:34;;;;;;;1.29;0.60;;;;;;;9.12;68.81;99000.38;2023051;77;20521;-72
2021/03/15 09:50:36;;;;;;;1.01;0.60;;;;;;;9.44;71.12;99008.84;2023351;79;20426;-71
2021/03/15 09:53:43;;;;;;;0.82;0.59;;;;;;;9.46;67.91;99012.28;2022987;79;21048;-71
2021/03/15 09:56:44;;;;;;;0.80;0.60;;;;;;;9.36;67.52;99013.25;2023143;79;20338;-71
2021/03/15 09:59:48;;;;;;;1.24;0.60;;;;;;;9.19;67.67;99008.16;2023169;79;20322;-71
2021/03/15 10:02:49;;;;;;;0.96;0.49;;;;;;;8.97;66.40;99019.44;2022561;76;20823;-71
2021/03/15 10:05:53;;;;;;;0.59;0.32;;;;;;;8.86;66.34;99018.66;2022378;79;20335;-73
2021/03/15 10:08:56;;;;;;;0.50;0.40;;;;;;;8.70;66.28;99025.59;2026411;79;20361;-74
2021/03/15 10:11:59;;;;;;;0.85;0.40;;;;;;;8.76;67.71;99018.66;2022486;79;20186;-71
2021/03/15 10:15:04;;;;;;;0.30;0.30;;;;;;;9.04;68.14;99026.34;2021942;79;20774;-72
2021/03/15 10:18:06;;;;;;;0.63;0.50;;;;;;;9.17;66.41;99021.97;2024069;77;21100;-71
2021/03/15 10:21:09;;;;;;;0.80;0.30;;;;;;;9.10;65.60;99021.13;2023146;79;20410;-72
2021/03/15 10:24:11;;;;;;;0.63;0.40;;;;;;;9.21;64.21;99028.84;2022920;79;20501;-71
2021/03/15 10:27:28;;;;;;;0.56;0.30;;;;;;;9.31;64.26;99033.97;2022401;79;20695;-71
2021/03/15 10:30:32;;;;;;;1.01;0.50;;;;;;;9.27;63.36;99029.66;2022108;77;20420;-71
2021/03/15 10:33:35;;;;;;;1.86;0.61;;;;;;;9.29;65.21;99030.53;2022710;79;20203;-70
2021/03/15 10:36:37;;;;;;;0.49;0.43;;;;;;;9.51;64.31;99031.25;2022930;79;20328;-71
2021/03/15 10:39:39;;;;;;;3.14;0.34;;;;;;;9.68;63.99;99031.16;2023501;79;20201;-71
2021/03/15 10:42:41;;;;;;;0.90;0.40;;;;;;;9.95;63.22;99030.97;2023327;79;20200;-71
2021/03/15 10:45:43;;;;;;;1.24;0.40;;;;;;;9.91;62.24;99034.47;2022246;77;20362;-71
2021/03/15 10:48:46;;;;;;;0.40;0.30;;;;;;;9.81;61.60;99031.94;2023582;79;20193;-71
2021/03/15 10:51:51;;;;;;;1.26;0.30;;;;;;;9.60;61.13;99043.31;2023764;79;20178;-70
2021/03/15 10:54:53;;;;;;;0.36;0.24;;;;;;;9.45;62.40;99049.44;2023076;79;20190;-70
2021/03/15 10:58:05;;;;;;;0.49;0.30;;;;;;;9.48;63.96;99045.97;2023817;79;20222;-71
2021/03/15 11:01:08;;;;;;;0.32;0.30;;;;;;;9.99;64.05;99047.38;2022650;76;26231;-71
2021/03/15 11:04:10;;;;;;;0.30;0.30;;;;;;;10.59;63.62;99053.81;2023088;79;20653;-71
2021/03/15 11:07:20;;;;;;;2.80;0.39;;;;;;;11.19;61.94;99050.53;2024184;79;20874;-71
2021/03/15 11:10:33;;;;;;;0.73;0.30;;;;;;;11.57;60.94;99033.56;2025239;79;20190;-71
2021/03/15 11:13:41;;;;;;;0.57;0.30;;;;;;;11.80;58.60;99042.78;2025636;79;20183;-72
2021/03/15 11:16:42;;;;;;;0.40;0.20;;;;;;;12.26;59.78;99034.25;2023954;77;20182;-71
2021/03/15 11:19:52;;;;;;;1.05;0.30;;;;;;;12.24;54.84;99043.81;2024708;79;20190;-71
2021/03/15 11:22:54;;;;;;;0.30;0.20;;;;;;;12.33;53.50;99045.41;2025086;79;20194;-71
2021/03/15 11:26:00;;;;;;;1.21;0.95;;;;;;;12.18;53.55;99058.66;2024534;79;21213;-71
2021/03/15 11:29:02;;;;;;;1.49;0.25;;;;;;;11.83;55.62;99054.00;2023801;79;20290;-71
2021/03/15 11:32:13;;;;;;;0.52;0.29;;;;;;;11.12;51.24;99059.25;2022895;77;22286;-71
2021/03/15 11:35:21;;;;;;;1.45;0.34;;;;;;;10.49;53.38;99064.28;2022842;79;20533;-70
2021/03/15 11:38:24;;;;;;;0.49;0.20;;;;;;;10.16;53.51;99073.19;2023648;79;20280;-71
2021/03/15 11:41:29;;;;;;;0.38;0.20;;;;;;;10.10;55.90;99078.41;2023407;79;20200;-70
2021/03/15 11:44:30;;;;;;;0.20;0.20;;;;;;;10.11;55.96;99073.22;2023340;79;20950;-70
2021/03/15 11:47:32;;;;;;;0.25;0.20;;;;;;;10.21;57.70;99079.22;2024031;77;20186;-70
2021/03/15 11:50:35;;;;;;;0.54;0.20;;;;;;;10.69;58.07;99072.72;2024900;79;20170;-71
2021/03/15 11:53:37;;;;;;;1.19;0.20;;;;;;;11.39;58.72;99071.94;2024530;79;20198;-71
2021/03/15 11:56:39;;;;;;;2.33;0.44;;;;;;;11.94;56.72;99072.94;2024463;79;20178;-71
2021/03/15 11:59:40;;;;;;;0.84;0.31;;;;;;;11.98;51.78;99069.41;2022711;79;20166;-71
2021/03/15 12:02:42;;;;;;;1.11;0.66;;;;;;;12.26;52.14;99059.41;2023052;76;20324;-72
2021/03/15 12:05:44;;;;;;;0.46;0.20;;;;;;;12.57;50.42;99059.75;2023430;79;20390;-71
2021/03/15 12:08:45;;;;;;;0.49;0.41;;;;;;;12.62;46.99;99060.53;2024657;79;20174;-71
2021/03/15 12:11:47;;;;;;;1.88;0.32;;;;;;;12.18;47.79;99092.50;2023386;79;20196;-70
2021/03/15 12:14:49;;;;;;;0.65;0.32;;;;;;;11.75;49.88;99103.53;2023682;79;20190;-70
2021/03/15 12:17:53;;;;;;;1.15;0.40;;;;;;;11.23;51.44;99100.72;2022614;77;31486;-70
2021/03/15 12:20:54;;;;;;;0.71;0.21;;;;;;;11.07;53.05;99100.03;2024210;79;20273;-70
2021/03/15 12:23:56;;;;;;;1.56;0.40;;;;;;;11.42;52.41;99090.09;2023212;79;20593;-70
2021/03/15 12:26:58;;;;;;;0.74;0.30;;;;;;;11.76;50.28;99102.63;2023288;79;20311;-71
2021/03/15 12:29:59;;;;;;;0.35;0.20;;;;;;;12.19;50.38;99082.06;2023917;79;20182;-71
2021/03/15 12:33:01;;;;;;;0.94;0.40;;;;;;;12.62;48.31;99087.44;2018244;77;20171;-70
2021/03/15 12:36:03;;;;;;;1.89;0.70;;;;;;;13.01;46.11;99082.38;2018234;80;20198;-70
2021/03/15 12:39:05;;;;;;;1.24;0.65;;;;;;;12.86;44.79;99098.28;2018474;80;20201;-71
2021/03/15 12:42:07;;;;;;;1.38;0.68;;;;;;;12.95;44.88;99096.38;2019237;80;20174;-71
2021/03/15 12:45:10;;;;;;;2.11;0.82;;;;;;;12.99;44.10;99082.41;2018455;79;20203;-72
2021/03/15 12:48:11;;;;;;;1.89;0.59;;;;;;;13.02;43.88;99084.09;2021535;77;20238;-71
2021/03/15 12:51:14;;;;;;;2.45;0.60;;;;;;;12.79;42.86;99092.34;2023425;79;20248;-71
2021/03/15 12:54:17;;;;;;;0.98;0.44;;;;;;;12.59;44.26;99081.44;2022253;79;20522;-71
2021/03/15 12:57:18;;;;;;;1.34;0.50;;;;;;;12.62;43.64;99079.63;2023162;79;20174;-71
2021/03/15 13:00:20;;;;;;;2.51;0.50;;;;;;;12.66;44.76;99091.69;2021771;77;20529;-71
2021/03/15 13:06:43;;;;;;;0.74;0.32;;;;;;;12.83;45.27;99072.31;2010412;70;20283;-72
2021/03/15 13:09:45;;;;;;;3.26;0.36;;;;;;;12.91;43.97;99066.03;2005313;80;20185;-72
2021/03/15 13:12:47;;;;;;;4.01;0.44;;;;;;;13.00;44.73;99073.69;2004862;80;20276;-71
2021/03/15 13:15:49;;;;;;;0.96;0.41;;;;;;;13.13;43.11;99076.06;2008671;78;20241;-71
2021/03/15 13:18:51;;;;;;;2.58;0.40;;;;;;;13.13;42.73;99079.53;2009401;80;20316;-71
2021/03/15 13:21:53;;;;;;;0.91;0.35;;;;;;;13.22;44.11;99081.97;2009336;80;20623;-72
2021/03/15 13:24:55;;;;;;;1.58;0.40;;;;;;;13.43;44.60;99074.59;2008705;80;20196;-72
2021/03/15 13:27:56;;;;;;;1.25;0.47;;;;;;;13.30;44.44;99084.44;2006821;80;20168;-71
2021/03/15 13:30:59;;;;;;;0.95;0.30;;;;;;;13.24;46.33;99100.19;2006012;78;20686;-71
2021/03/15 13:34:01;;;;;;;2.78;0.30;;;;;;;12.98;44.99;99104.16;2006393;80;20249;-71
2021/03/15 13:37:02;;;;;;;0.30;0.30;;;;;;;12.40;43.65;99096.50;2007198;80;20176;-71
2021/03/15 13:40:05;;;;;;;1.36;1.20;;;;;;;11.86;45.13;99103.41;2006498;80;20196;-72
2021/03/15 13:46:26;;;;;;;0.80;0.40;;;;;;;11.81;47.65;99093.06;2030374;70;20581;-71
2021/03/15 13:49:29;;;;;;;0.55;0.30;;;;;;;11.98;46.12;99087.59;2004139;80;21257;-70
2021/03/15 13:52:31;;;;;;;0.50;0.30;;;;;;;12.34;43.21;99084.44;2003530;80;20198;-71
2021/03/15 13:55:33;;;;;;;2.13;0.57;;;;;;;12.52;43.26;99091.06;2006143;80;20762;-71
2021/03/15 13:58:34;;;;;;;1.50;0.26;;;;;;;12.65;42.23;99097.78;2006637;80;20202;-71
2021/03/15 14:01:36;;;;;;;0.30;0.25;;;;;;;13.00;43.57;99097.16;2005653;78;20933;-71
2021/03/15 14:04:39;;;;;;;0.34;0.20;;;;;;;13.28;42.15;99100.13;2006494;80;20916;-71
2021/03/15 14:07:41;;;;;;;0.75;0.30;;;;;;;13.33;42.35;99100.03;2006775;80;20215;-70
2021/03/15 14:10:42;;;;;;;0.46;0.30;;;;;;;13.42;42.77;99089.41;2005584;80;20758;-70
2021/03/15 14:13:44;;;;;;;0.20;0.20;;;;;;;13.43;43.22;99088.50;2004281;80;20208;-71
2021/03/15 14:16:48;;;;;;;1.46;0.30;;;;;;;13.44;42.97;99099.78;2003677;78;20941;-71
2021/03/15 14:19:51;;;;;;;1.25;0.30;;;;;;;13.24;41.98;99116.69;2003661;80;20260;-71
2021/03/15 14:22:53;;;;;;;0.66;0.31;;;;;;;13.09;42.23;99106.53;2002274;80;20206;-70
2021/03/15 14:25:55;;;;;;;0.86;0.30;;;;;;;13.25;43.08;99109.75;2001927;80;20223;-71
2021/03/15 14:28:57;;;;;;;2.30;0.30;;;;;;;13.41;42.11;99107.69;2003058;80;20198;-71
2021/03/15 14:31:58;;;;;;;1.05;0.30;;;;;;;13.57;41.97;99115.16;2001927;78;22909;-71
2021/03/15 14:35:01;;;;;;;1.33;0.41;;;;;;;13.58;42.00;99116.03;2002404;80;20783;-71
2021/03/15 14:38:02;;;;;;;0.85;0.30;;;;;;;13.44;39.85;99112.84;2002696;80;20759;-70
2021/03/15 14:41:04;;;;;;;0.91;0.40;;;;;;;13.31;40.68;99117.47;2002428;80;20220;-70
2021/03/15 14:44:06;;;;;;;0.94;0.30;;;;;;;13.22;41.62;99120.22;2002912;80;20234;-70
2021/03/15 14:47:08;;;;;;;2.99;0.30;;;;;;;13.23;41.32;99114.13;2001637;77;20211;-70